createdAt,value
2019-05-10T00:00:24.189Z,2.33
2019-05-10T00:03:13.281Z,2.42
2019-05-10T00:06:02.388Z,2.40
2019-05-10T00:08:47.784Z,2.30
2019-05-10T00:11:34.203Z,2.12
2019-05-10T00:14:27.231Z,2.58
2019-05-10T00:17:00.665Z,2.47
2019-05-10T00:19:32.065Z,2.55
2019-05-10T00:22:04.645Z,2.60
2019-05-10T00:24:35.912Z,2.60
2019-05-10T00:27:07.486Z,2.40
2019-05-10T00:29:38.896Z,3.00
2019-05-10T00:32:10.315Z,2.30
2019-05-10T00:34:41.824Z,2.60
2019-05-10T00:37:13.172Z,2.72
2019-05-10T00:39:44.689Z,2.55
2019-05-10T00:42:16.091Z,2.70
2019-05-10T00:44:47.525Z,2.60
2019-05-10T00:47:18.875Z,2.77
2019-05-10T00:49:50.146Z,2.85
2019-05-10T00:52:21.521Z,2.67
2019-05-10T00:54:52.820Z,2.70
2019-05-10T00:57:24.095Z,2.70
2019-05-10T00:59:55.410Z,2.58
2019-05-10T01:02:26.664Z,2.90
2019-05-10T01:04:58.043Z,2.47
2019-05-10T01:07:29.324Z,2.37
2019-05-10T01:10:00.615Z,2.55
2019-05-10T01:12:31.881Z,2.20
2019-05-10T01:15:03.469Z,2.50
2019-05-10T01:17:34.890Z,2.67
2019-05-10T01:20:08.080Z,2.50
2019-05-10T01:22:39.578Z,2.65
2019-05-10T01:25:11.897Z,2.55
2019-05-10T01:27:43.324Z,2.60
2019-05-10T01:30:15.522Z,2.45
2019-05-10T01:32:46.991Z,2.90
2019-05-10T01:35:18.327Z,2.20
2019-05-10T01:37:49.669Z,2.30
2019-05-10T01:40:22.252Z,2.62
2019-05-10T01:42:53.609Z,2.30
2019-05-10T01:45:25.304Z,2.50
2019-05-10T01:47:56.703Z,2.87
2019-05-10T01:50:28.112Z,2.33
2019-05-10T01:52:59.390Z,2.35
2019-05-10T01:55:30.743Z,2.50
2019-05-10T01:58:02.385Z,2.60
2019-05-10T02:00:34.882Z,2.50
2019-05-10T02:03:06.340Z,2.52
2019-05-10T02:05:37.666Z,2.40
2019-05-10T02:08:09.057Z,2.50
2019-05-10T02:10:41.383Z,2.35
2019-05-10T02:13:12.996Z,2.58
2019-05-10T02:15:44.504Z,2.42
2019-05-10T02:18:15.889Z,2.58
2019-05-10T02:20:47.276Z,2.45
2019-05-10T02:23:18.603Z,2.60
2019-05-10T02:26:08.345Z,2.40
2019-05-10T02:28:25.646Z,2.67
2019-05-10T02:30:57.010Z,2.50
2019-05-10T02:33:28.462Z,2.17
2019-05-10T02:35:59.790Z,2.45
2019-05-10T02:38:31.143Z,2.27
2019-05-10T02:41:02.631Z,2.27
2019-05-10T02:43:33.975Z,2.12
2019-05-10T02:46:05.600Z,2.40
2019-05-10T02:48:36.884Z,2.20
2019-05-10T02:51:08.173Z,2.10
2019-05-10T02:53:39.689Z,2.42
2019-05-10T02:56:29.694Z,2.50
2019-05-10T02:58:48.941Z,2.35
2019-05-10T03:01:23.308Z,2.52
2019-05-10T03:03:55.192Z,2.40
2019-05-10T03:06:29.237Z,2.40
2019-05-10T03:09:06.014Z,2.30
2019-05-10T03:11:49.205Z,2.17
2019-05-10T03:14:20.718Z,2.37
2019-05-10T03:16:52.894Z,2.60
2019-05-10T03:19:24.314Z,2.60
2019-05-10T03:22:09.351Z,2.60
2019-05-10T03:24:40.608Z,2.65
2019-05-10T03:27:12.018Z,2.50
2019-05-10T03:29:43.513Z,6.60
2019-05-10T03:32:15.017Z,3.75
2019-05-10T03:34:47.543Z,2.50
2019-05-10T03:37:18.946Z,2.20
2019-05-10T03:39:50.469Z,2.62
2019-05-10T03:42:22.056Z,2.95
2019-05-10T03:44:59.005Z,2.40
2019-05-10T03:47:30.435Z,2.25
2019-05-10T03:50:01.789Z,2.65
2019-05-10T03:52:33.181Z,2.60
2019-05-10T03:55:05.869Z,2.35
2019-05-10T03:57:37.411Z,2.50
2019-05-10T04:00:13.019Z,2.83
2019-05-10T04:02:44.474Z,3.00
2019-05-10T04:05:16.049Z,2.60
2019-05-10T04:07:47.503Z,2.95
2019-05-10T04:10:20.825Z,2.40
2019-05-10T04:12:51.917Z,2.52
2019-05-10T04:15:23.236Z,2.83
2019-05-10T04:17:54.588Z,2.75
2019-05-10T04:20:25.833Z,2.70
2019-05-10T04:23:09.103Z,2.40
2019-05-10T04:25:40.556Z,2.40
2019-05-10T04:28:12.018Z,2.75
2019-05-10T04:30:43.257Z,2.50
2019-05-10T04:33:14.539Z,2.95
2019-05-10T04:35:45.912Z,2.62
2019-05-10T04:38:17.486Z,2.80
2019-05-10T04:40:48.766Z,2.60
2019-05-10T04:43:20.090Z,2.80
2019-05-10T04:45:51.344Z,3.10
2019-05-10T04:48:22.707Z,2.30
2019-05-10T04:50:54.126Z,2.70
2019-05-10T04:53:25.518Z,2.80
2019-05-10T04:55:56.960Z,2.72
2019-05-10T04:58:28.289Z,3.00
2019-05-10T05:00:59.586Z,2.95
2019-05-10T05:03:30.891Z,3.33
2019-05-10T05:06:02.324Z,3.27
2019-05-10T05:08:33.620Z,3.20
2019-05-10T05:11:05.012Z,3.30
2019-05-10T05:13:36.303Z,3.85
2019-05-10T05:16:07.650Z,4.75
2019-05-10T05:18:39.169Z,4.15
2019-05-10T05:21:10.411Z,4.35
2019-05-10T05:23:41.698Z,4.55
2019-05-10T05:26:13.017Z,4.58
2019-05-10T05:28:44.301Z,4.05
2019-05-10T05:31:15.642Z,4.25
2019-05-10T05:33:47.159Z,4.00
2019-05-10T05:36:18.415Z,4.25
2019-05-10T05:38:49.752Z,3.70
2019-05-10T05:41:21.014Z,3.83
2019-05-10T05:43:52.258Z,3.58
2019-05-10T05:46:23.519Z,3.55
2019-05-10T05:48:54.792Z,3.85
2019-05-10T05:51:26.019Z,3.60
2019-05-10T05:53:57.326Z,3.98
2019-05-10T05:56:28.613Z,3.87
2019-05-10T05:58:59.975Z,3.85
2019-05-10T06:01:31.277Z,4.03
2019-05-10T06:04:06.216Z,3.83
2019-05-10T06:06:36.032Z,4.00
2019-05-10T06:09:08.446Z,3.98
2019-05-10T06:11:39.704Z,3.70
2019-05-10T06:14:12.850Z,3.60
2019-05-10T06:16:44.976Z,3.95
2019-05-10T06:23:05.067Z,4.15
2019-05-10T06:25:38.139Z,3.83
2019-05-10T06:27:54.912Z,4.03
2019-05-10T06:30:26.200Z,4.00
2019-05-10T06:33:00.965Z,4.12
2019-05-10T06:35:30.856Z,3.70
2019-05-10T06:38:02.309Z,3.60
2019-05-10T06:40:37.525Z,3.37
2019-05-10T06:43:12.922Z,3.65
2019-05-10T06:45:39.764Z,3.47
2019-05-10T06:48:11.117Z,3.12
2019-05-10T06:50:42.375Z,3.20
2019-05-10T06:53:14.115Z,3.58
2019-05-10T06:55:45.543Z,3.08
2019-05-10T06:58:16.827Z,3.65
2019-05-10T07:00:48.106Z,3.15
2019-05-10T07:03:19.555Z,3.52
2019-05-10T07:05:50.908Z,3.50
2019-05-10T07:08:22.269Z,3.62
2019-05-10T07:10:53.632Z,3.62
2019-05-10T07:13:25.058Z,3.52
2019-05-10T07:15:56.335Z,4.12
2019-05-10T07:18:27.868Z,3.33
2019-05-10T07:21:00.940Z,3.45
2019-05-10T07:23:32.296Z,3.12
2019-05-10T07:26:03.810Z,3.50
2019-05-10T07:28:35.268Z,3.42
2019-05-10T07:31:06.607Z,3.02
2019-05-10T07:33:40.106Z,3.42
2019-05-10T07:36:15.136Z,5.70
2019-05-10T07:38:45.189Z,3.25
2019-05-10T07:41:19.585Z,3.35
2019-05-10T07:44:00.763Z,3.70
2019-05-10T07:46:32.558Z,2.98
2019-05-10T07:49:03.945Z,3.50
2019-05-10T07:51:35.263Z,3.40
2019-05-10T07:54:06.827Z,3.25
2019-05-10T07:56:45.732Z,2.90
2019-05-10T07:59:22.083Z,3.00
2019-05-10T08:01:50.715Z,2.98
2019-05-10T08:04:28.848Z,3.25
2019-05-10T08:06:55.279Z,3.37
2019-05-10T08:09:26.536Z,3.37
2019-05-10T08:12:03.177Z,2.77
2019-05-10T08:14:30.782Z,3.08
2019-05-10T08:17:06.148Z,3.22
2019-05-10T08:19:37.541Z,3.00
2019-05-10T08:22:09.354Z,2.98
2019-05-10T08:24:44.542Z,2.83
2019-05-10T08:27:14.887Z,3.42
2019-05-10T08:29:52.869Z,2.60
2019-05-10T08:32:24.222Z,6.10
2019-05-10T08:34:55.750Z,2.25
2019-05-10T08:37:37.321Z,2.37
2019-05-10T08:40:05.352Z,2.77
2019-05-10T08:42:47.875Z,2.62
2019-05-10T08:45:12.401Z,2.62
2019-05-10T08:47:43.258Z,2.08
2019-05-10T08:50:29.315Z,2.25
2019-05-10T08:52:47.943Z,1.95
2019-05-10T08:55:19.594Z,2.37
2019-05-10T08:57:52.539Z,2.17
2019-05-10T09:00:41.544Z,2.27
2019-05-10T09:03:01.025Z,2.05
2019-05-10T09:05:31.893Z,2.15
2019-05-10T09:08:05.844Z,2.42
2019-05-10T09:10:37.083Z,1.95
2019-05-10T09:13:08.465Z,1.87
2019-05-10T09:15:43.244Z,2.20
2019-05-10T09:18:12.999Z,2.02
2019-05-10T09:20:44.490Z,2.00
2019-05-10T09:23:19.995Z,2.52
2019-05-10T09:25:49.095Z,2.00
2019-05-10T09:28:21.915Z,1.72
2019-05-10T09:31:00.376Z,1.98
2019-05-10T09:33:26.418Z,1.85
2019-05-10T09:35:59.345Z,1.72
2019-05-10T09:38:37.155Z,2.20
2019-05-10T09:41:03.916Z,1.92
2019-05-10T09:43:42.419Z,2.00
2019-05-10T09:46:09.085Z,1.80
2019-05-10T09:48:44.687Z,1.80
2019-05-10T09:51:19.082Z,1.77
2019-05-10T09:53:48.630Z,1.90
2019-05-10T09:56:20.193Z,1.70
2019-05-10T09:59:07.940Z,1.77
2019-05-10T10:01:39.562Z,1.90
2019-05-10T10:04:11.078Z,4.00
2019-05-10T10:06:48.262Z,2.30
2019-05-10T10:09:17.160Z,1.95
2019-05-10T10:11:58.099Z,1.90
2019-05-10T10:14:22.544Z,1.70
2019-05-10T10:16:58.168Z,1.55
2019-05-10T10:19:27.842Z,1.70
2019-05-10T10:21:59.341Z,1.60
2019-05-10T10:24:30.615Z,2.08
2019-05-10T10:27:03.142Z,1.87
2019-05-10T10:29:38.276Z,2.10
2019-05-10T10:32:08.071Z,1.85
2019-05-10T10:34:43.033Z,2.02
2019-05-10T10:37:14.835Z,2.20
2019-05-10T10:39:47.699Z,1.92
2019-05-10T10:42:19.002Z,1.90
2019-05-10T10:44:50.450Z,1.70
2019-05-10T10:47:22.816Z,1.87
2019-05-10T10:49:54.813Z,1.87
2019-05-10T10:52:27.797Z,1.70
2019-05-10T10:54:59.361Z,2.22
2019-05-10T10:57:30.670Z,2.30
2019-05-10T11:00:02.042Z,1.72
2019-05-10T11:02:34.128Z,1.60
2019-05-10T11:05:07.341Z,1.77
2019-05-10T11:07:43.041Z,1.60
2019-05-10T11:10:18.841Z,1.70
2019-05-10T11:12:45.489Z,2.00
2019-05-10T11:15:26.118Z,1.95
2019-05-10T11:17:50.663Z,2.20
2019-05-10T11:20:22.279Z,2.00
2019-05-10T11:22:53.647Z,1.85
2019-05-10T11:25:24.991Z,1.80
2019-05-10T11:27:58.552Z,1.62
2019-05-10T11:30:29.174Z,1.57
2019-05-10T11:33:00.585Z,1.95
2019-05-10T11:35:34.465Z,1.65
2019-05-10T11:38:06.567Z,1.65
2019-05-10T11:40:38.110Z,1.70
2019-05-10T11:43:10.073Z,1.72
2019-05-10T11:45:44.133Z,1.80
2019-05-10T11:48:17.201Z,1.60
2019-05-10T11:50:51.114Z,1.72
2019-05-10T11:53:24.014Z,1.77
2019-05-10T11:55:55.174Z,1.60
2019-05-10T11:58:26.513Z,1.77
2019-05-10T12:03:31.807Z,1.90
2019-05-10T12:06:08.814Z,1.77
2019-05-10T12:08:36.851Z,1.42
2019-05-10T12:11:20.701Z,1.40
2019-05-10T12:13:41.389Z,1.75
2019-05-10T12:16:16.860Z,1.37
2019-05-10T12:19:01.357Z,1.50
2019-05-10T12:21:21.768Z,1.57
2019-05-10T12:23:56.625Z,1.60
2019-05-10T12:26:20.249Z,1.60
2019-05-10T12:29:11.997Z,2.08
2019-05-10T12:31:41.485Z,1.98
2019-05-10T12:34:16.279Z,3.58
2019-05-10T12:36:47.659Z,1.10
2019-05-10T12:39:21.302Z,2.50
2019-05-10T12:41:53.130Z,3.75
2019-05-10T12:44:24.655Z,1.50
2019-05-10T12:46:56.238Z,1.37
2019-05-10T12:49:28.504Z,1.57
2019-05-10T12:51:59.841Z,1.40
2019-05-10T12:54:31.707Z,1.50
2019-05-10T12:57:04.171Z,1.40
2019-05-10T12:59:36.582Z,1.42
2019-05-10T13:02:11.106Z,1.70
2019-05-10T13:04:41.391Z,1.50
2019-05-10T13:07:13.780Z,1.72
2019-05-10T13:09:50.135Z,1.60
2019-05-10T13:12:23.349Z,1.30
2019-05-10T13:14:54.859Z,1.45
2019-05-10T13:17:28.368Z,1.17
2019-05-10T13:20:02.028Z,1.27
2019-05-10T13:22:37.608Z,1.40
2019-05-10T13:25:08.390Z,1.40
2019-05-10T13:27:40.095Z,1.92
2019-05-10T13:30:12.428Z,1.32
2019-05-10T13:32:43.981Z,1.57
2019-05-10T13:35:15.656Z,1.25
2019-05-10T13:37:47.312Z,1.70
2019-05-10T13:40:18.967Z,1.47
2019-05-10T13:42:50.383Z,1.32
2019-05-10T13:45:21.717Z,1.40
2019-05-10T13:47:54.260Z,1.65
2019-05-10T13:50:25.653Z,1.50
2019-05-10T13:52:57.477Z,1.42
2019-05-10T13:55:29.164Z,1.60
2019-05-10T13:58:01.010Z,1.30
2019-05-10T14:00:34.144Z,1.12
2019-05-10T14:03:11.405Z,1.47
2019-05-10T14:05:40.267Z,1.20
2019-05-10T14:08:12.091Z,1.40
2019-05-10T14:10:43.521Z,1.50
2019-05-10T14:13:16.776Z,1.17
2019-05-10T14:15:48.303Z,1.17
2019-05-10T14:18:19.775Z,1.30
2019-05-10T14:20:51.441Z,1.30
2019-05-10T14:23:22.949Z,1.25
2019-05-10T14:25:54.234Z,1.70
2019-05-10T14:28:25.699Z,1.20
2019-05-10T14:30:58.921Z,1.60
2019-05-10T14:33:30.639Z,1.87
2019-05-10T14:36:03.238Z,1.50
2019-05-10T14:38:35.269Z,1.32
2019-05-10T14:41:10.674Z,1.80
2019-05-10T14:43:39.613Z,1.40
2019-05-10T14:46:13.711Z,1.40
2019-05-10T14:48:44.525Z,1.37
2019-05-10T14:51:15.918Z,1.60
2019-05-10T14:53:48.027Z,1.67
2019-05-10T14:56:19.815Z,1.40
2019-05-10T14:58:52.033Z,1.57
2019-05-10T15:01:23.770Z,1.45
2019-05-10T15:03:55.680Z,1.65
2019-05-10T15:06:30.720Z,1.80
2019-05-10T15:09:00.486Z,1.85
2019-05-10T15:11:33.255Z,1.75
2019-05-10T15:14:06.205Z,1.67
2019-05-10T15:16:37.844Z,1.75
2019-05-10T15:19:09.193Z,1.80
2019-05-10T15:21:40.628Z,1.77
2019-05-10T15:24:12.344Z,1.40
2019-05-10T15:26:46.148Z,1.40
2019-05-10T15:29:22.414Z,1.42
2019-05-10T15:31:51.969Z,1.60
2019-05-10T15:34:23.695Z,1.72
2019-05-10T15:37:10.757Z,1.47
2019-05-10T15:39:34.096Z,1.27
2019-05-10T15:42:05.685Z,2.12
2019-05-10T15:44:41.549Z,2.00
2019-05-10T15:47:20.575Z,2.52
2019-05-10T15:49:45.873Z,1.92
2019-05-10T15:52:18.108Z,3.80
2019-05-10T15:54:52.668Z,1.70
2019-05-10T15:57:24.355Z,3.00
2019-05-10T15:59:59.097Z,2.52
2019-05-10T16:02:29.131Z,2.10
2019-05-10T16:05:02.229Z,2.12
2019-05-10T16:07:34.032Z,1.75
2019-05-10T16:10:06.673Z,2.05
2019-05-10T16:12:43.010Z,1.50
2019-05-10T16:15:13.911Z,2.92
2019-05-10T16:17:44.446Z,1.47
2019-05-10T16:20:16.141Z,1.85
2019-05-10T16:22:47.510Z,1.45
2019-05-10T16:25:19.061Z,1.52
2019-05-10T16:27:50.637Z,5.10
2019-05-10T16:30:22.187Z,3.83
2019-05-10T16:32:53.659Z,1.80
2019-05-10T16:35:38.107Z,2.62
2019-05-10T16:37:57.865Z,1.90
2019-05-10T16:40:29.146Z,2.02
2019-05-10T16:43:00.566Z,1.72
2019-05-10T16:45:31.907Z,1.67
2019-05-10T16:48:05.918Z,1.72
2019-05-10T16:50:36.613Z,2.25
2019-05-10T16:53:08.179Z,2.60
2019-05-10T16:55:42.748Z,4.10
2019-05-10T16:58:15.369Z,1.60
2019-05-10T17:00:48.048Z,1.60
2019-05-10T17:03:20.675Z,3.55
2019-05-10T17:05:53.899Z,2.98
2019-05-10T17:08:25.170Z,1.50
2019-05-10T17:10:57.846Z,2.02
2019-05-10T17:13:29.204Z,7.90
2019-05-10T17:16:00.690Z,5.15
2019-05-10T17:18:32.114Z,1.60
2019-05-10T17:21:03.393Z,1.25
2019-05-10T17:23:34.934Z,1.52
2019-05-10T17:26:06.205Z,1.25
2019-05-10T17:28:40.501Z,1.50
2019-05-10T17:31:12.135Z,1.30
2019-05-10T17:33:44.322Z,1.42
2019-05-10T17:36:19.758Z,1.30
2019-05-10T17:38:53.477Z,1.10
2019-05-10T17:41:24.888Z,1.50
2019-05-10T17:43:57.337Z,1.52
2019-05-10T17:46:28.819Z,1.35
2019-05-10T17:49:00.383Z,1.45
2019-05-10T17:51:31.725Z,1.70
2019-05-10T17:54:03.848Z,1.50
2019-05-10T17:56:38.728Z,1.60
2019-05-10T17:59:11.898Z,1.40
2019-05-10T18:01:41.760Z,1.35
2019-05-10T18:04:14.809Z,1.50
2019-05-10T18:06:46.170Z,1.60
2019-05-10T18:09:17.849Z,6.10
2019-05-10T18:11:49.362Z,2.00
2019-05-10T18:14:21.005Z,1.77
2019-05-10T18:16:52.271Z,1.80
2019-05-10T18:19:26.336Z,2.00
2019-05-10T18:22:00.832Z,2.20
2019-05-10T18:24:36.265Z,2.67
2019-05-10T18:27:04.068Z,2.65
2019-05-10T18:29:35.784Z,2.70
2019-05-10T18:32:10.829Z,3.08
2019-05-10T18:34:40.688Z,3.58
2019-05-10T18:37:15.895Z,2.72
2019-05-10T18:39:47.387Z,2.25
2019-05-10T18:42:25.467Z,2.10
2019-05-10T18:44:54.137Z,1.62
2019-05-10T18:47:25.281Z,1.67
2019-05-10T18:49:56.651Z,1.72
2019-05-10T18:52:27.924Z,4.83
2019-05-10T18:55:06.463Z,2.12
2019-05-10T18:57:37.780Z,2.20
2019-05-10T19:00:10.425Z,2.80
2019-05-10T19:02:42.022Z,2.45
2019-05-10T19:05:13.580Z,2.35
2019-05-10T19:07:45.000Z,2.55
2019-05-10T19:10:16.412Z,2.37
2019-05-10T19:12:53.799Z,2.00
2019-05-10T19:15:20.820Z,2.02
2019-05-10T19:17:52.060Z,2.50
2019-05-10T19:20:23.410Z,2.30
2019-05-10T19:22:54.832Z,2.10
2019-05-10T19:25:26.249Z,2.20
2019-05-10T19:27:58.687Z,2.12
2019-05-10T19:30:30.031Z,2.02
2019-05-10T19:33:01.353Z,2.37
2019-05-10T19:35:35.843Z,2.40
2019-05-10T19:38:06.270Z,1.87
2019-05-10T19:40:37.685Z,1.80
2019-05-10T19:43:09.446Z,1.80
2019-05-10T19:45:40.794Z,1.67
2019-05-10T19:48:12.889Z,2.10
2019-05-10T19:50:44.545Z,2.10
2019-05-10T19:53:16.274Z,1.90
2019-05-10T19:55:51.501Z,2.08
2019-05-10T19:58:21.527Z,2.05
2019-05-10T20:00:53.412Z,2.80
2019-05-10T20:03:25.300Z,2.80
2019-05-10T20:05:57.533Z,2.35
2019-05-10T20:08:29.159Z,2.20
2019-05-10T20:11:01.848Z,2.65
2019-05-10T20:13:34.589Z,2.27
2019-05-10T20:16:06.053Z,2.27
2019-05-10T20:18:37.777Z,2.08
2019-05-10T20:21:09.736Z,2.45
2019-05-10T20:23:41.703Z,2.92
2019-05-10T20:26:13.129Z,3.02
2019-05-10T20:28:48.412Z,3.00
2019-05-10T20:31:20.445Z,3.60
2019-05-10T20:33:52.303Z,3.27
2019-05-10T20:36:24.211Z,3.52
2019-05-10T20:38:55.966Z,3.05
2019-05-10T20:41:27.717Z,3.30
2019-05-10T20:43:59.848Z,3.55
2019-05-10T20:46:31.300Z,3.10
2019-05-10T20:49:02.716Z,3.15
2019-05-10T20:51:35.991Z,3.47
2019-05-10T20:54:07.634Z,3.60
2019-05-10T20:56:40.849Z,3.40
2019-05-10T20:59:12.281Z,3.83
2019-05-10T21:01:44.105Z,4.12
2019-05-10T21:04:15.719Z,4.33
2019-05-10T21:06:47.270Z,4.92
2019-05-10T21:09:19.059Z,4.67
2019-05-10T21:11:50.851Z,4.40
2019-05-10T21:14:22.541Z,4.78
2019-05-10T21:16:54.086Z,4.10
2019-05-10T21:19:25.726Z,4.53
2019-05-10T21:21:57.194Z,4.90
2019-05-10T21:24:28.887Z,5.22
2019-05-10T21:27:00.541Z,5.30
2019-05-10T21:29:32.107Z,5.08
2019-05-10T21:32:03.588Z,4.90
2019-05-10T21:34:35.037Z,4.90
2019-05-10T21:37:06.442Z,4.80
2019-05-10T21:39:37.980Z,5.33
2019-05-10T21:42:09.284Z,4.80
2019-05-10T21:44:40.560Z,4.75
2019-05-10T21:47:11.965Z,4.95
2019-05-10T21:49:43.273Z,5.03
2019-05-10T21:52:14.660Z,4.45
2019-05-10T21:54:45.895Z,5.17
2019-05-10T21:57:17.307Z,4.28
2019-05-10T21:59:48.872Z,4.50
2019-05-10T22:02:20.303Z,4.60
2019-05-10T22:04:51.666Z,4.35
2019-05-10T22:07:23.267Z,5.08
2019-05-10T22:09:54.498Z,5.65
2019-05-10T22:12:25.960Z,6.05
2019-05-10T22:14:57.195Z,5.83
2019-05-10T22:17:28.541Z,5.72
2019-05-10T22:19:59.847Z,4.92
2019-05-10T22:22:31.112Z,5.33
2019-05-10T22:25:02.351Z,4.92
2019-05-10T22:27:34.741Z,5.42
2019-05-10T22:30:12.129Z,4.70
2019-05-10T22:32:42.159Z,5.53
2019-05-10T22:35:13.573Z,5.42
2019-05-10T22:37:44.939Z,5.80
2019-05-10T22:40:16.481Z,6.10
2019-05-10T22:42:47.851Z,5.83
2019-05-10T22:45:19.328Z,6.70
2019-05-10T22:47:50.638Z,5.90
2019-05-10T22:50:22.051Z,6.55
2019-05-10T22:52:53.474Z,6.08
2019-05-10T22:55:24.815Z,6.28
2019-05-10T22:57:56.049Z,6.87
2019-05-10T23:00:28.518Z,6.90
2019-05-10T23:02:59.813Z,6.35
2019-05-10T23:05:31.079Z,7.15
2019-05-10T23:08:02.315Z,7.40
2019-05-10T23:10:33.713Z,7.15
2019-05-10T23:13:05.186Z,7.15
2019-05-10T23:15:36.832Z,6.92
2019-05-10T23:18:08.066Z,6.53
2019-05-10T23:20:39.427Z,6.00
2019-05-10T23:23:10.667Z,6.15
2019-05-10T23:25:41.953Z,5.37
2019-05-10T23:28:13.320Z,6.42
2019-05-10T23:30:44.608Z,6.00
2019-05-10T23:33:15.938Z,6.65
2019-05-10T23:35:47.244Z,6.28
2019-05-10T23:38:18.500Z,6.72
2019-05-10T23:40:49.728Z,6.75
2019-05-10T23:43:21.060Z,6.72
2019-05-10T23:45:52.296Z,7.03
2019-05-10T23:48:23.555Z,6.53
2019-05-10T23:50:54.785Z,6.75
2019-05-10T23:53:26.123Z,6.92
2019-05-10T23:55:57.367Z,7.15
2019-05-10T23:58:28.690Z,7.30
